ソウル/仁川 の空港の天気 - METARとTAF

仁川国際空港 ( RKSI / ICN ) - 韓国 仁川広域市 (ソウル特別市近郊)
飛行場実況気象(Metar)
観測時間05/27 08:30 KST (05/26 23:30 UTC)
風向・風速北西 2m/s
視程10km以上
天気現象
なし
気温16℃
湿度68%
気圧1010hPa
METARRKSI 262330Z 31003KT CAVOK 16/10 Q1010 NOSIG
過去の天気等 Google飛行場航空写真 Wunderground天気予報

過去48時間のMETAR

飛行場予報(TAF)
発表時間: 5/27 02:00 KST (5/26 17:00 UTC)
予報対象時間: 27日3時 KST ~ 28日9時 KST
風向・風速北北西 3m/s
視程8000m
少しの雲 雲底高度 910m
27日12時 KST ~ 27日13時 KST に徐々に
風向・風速西 5m/s
28日0時 KST ~ 28日1時 KST に徐々に
風向・風速南南西 3m/s
全天の4割程度の雲 雲底高度 240m
28日2時 KST ~ 28日3時 KST に徐々に
視程4200m
天気現象もや
28日6時 KST ~ 28日7時 KST に徐々に
風向・風速西南西 3m/s
視程6000m
天気現象運行に影響にある天気現象が終了
全天の4割程度の雲 雲底高度 300m
全天の8割程度の雲 雲底高度 910m
TAF RKSI 261700Z 2618/2724 33006KT 8000 FEW030 TN12/2620Z TX20/2704Z TN13/2721Z
BECMG 2703/2704 27010KT
BECMG 2715/2716 20005KT SCT008
BECMG 2717/2718 4200 BR
BECMG 2721/2722 24005KT 6000 NSW SCT010 BKN030